createdAt,value
2018-09-25T00:02:33.475Z,7.10
2018-09-25T00:05:06.932Z,7.10
2018-09-25T00:07:40.393Z,7.10
2018-09-25T00:10:14.026Z,7.10
2018-09-25T00:12:47.456Z,7.10
2018-09-25T00:15:20.974Z,7.10
2018-09-25T00:17:54.597Z,7.10
2018-09-25T00:20:28.062Z,7.10
2018-09-25T00:23:01.674Z,7.00
2018-09-25T00:25:35.171Z,7.00
2018-09-25T00:28:08.485Z,6.90
2018-09-25T00:30:41.965Z,6.90
2018-09-25T00:33:15.440Z,6.90
2018-09-25T00:35:49.066Z,6.90
2018-09-25T00:38:22.545Z,6.90
2018-09-25T00:40:56.113Z,6.80
2018-09-25T00:43:29.647Z,6.80
2018-09-25T00:46:03.288Z,6.80
2018-09-25T00:48:36.697Z,6.80
2018-09-25T00:51:10.208Z,6.80
2018-09-25T00:53:43.657Z,6.80
2018-09-25T00:56:17.257Z,6.70
2018-09-25T00:58:50.757Z,6.70
2018-09-25T01:01:24.268Z,6.70
2018-09-25T01:03:57.882Z,6.70
2018-09-25T01:06:31.472Z,6.70
2018-09-25T01:09:04.909Z,6.60
2018-09-25T01:11:38.517Z,6.60
2018-09-25T01:14:12.222Z,6.60
2018-09-25T01:16:45.642Z,6.60
2018-09-25T01:19:19.201Z,6.60
2018-09-25T01:21:52.892Z,6.60
2018-09-25T01:24:26.397Z,6.60
2018-09-25T01:27:00.001Z,6.60
2018-09-25T01:29:33.384Z,6.50
2018-09-25T01:32:06.868Z,6.50
2018-09-25T01:34:40.410Z,6.50
2018-09-25T01:37:13.932Z,6.50
2018-09-25T01:39:47.736Z,6.50
2018-09-25T01:42:21.285Z,6.50
2018-09-25T01:44:54.898Z,6.50
2018-09-25T01:47:28.472Z,6.40
2018-09-25T01:50:02.088Z,6.40
2018-09-25T01:52:35.656Z,6.40
2018-09-25T01:55:09.064Z,6.40
2018-09-25T01:57:42.637Z,6.40
2018-09-25T02:00:16.238Z,6.40
2018-09-25T02:02:49.816Z,6.30
2018-09-25T02:05:23.245Z,6.30
2018-09-25T02:07:56.664Z,6.40
2018-09-25T02:10:30.046Z,6.30
2018-09-25T02:13:03.508Z,6.30
2018-09-25T02:15:37.105Z,6.30
2018-09-25T02:18:10.922Z,6.30
2018-09-25T02:20:44.421Z,6.30
2018-09-25T02:23:18.046Z,6.20
2018-09-25T02:25:54.482Z,6.20
2018-09-25T02:28:27.961Z,6.20
2018-09-25T02:31:01.539Z,6.20
2018-09-25T02:33:35.189Z,6.10
2018-09-25T02:36:08.882Z,6.10
2018-09-25T02:38:42.345Z,6.10
2018-09-25T02:41:15.919Z,6.00
2018-09-25T02:43:49.456Z,6.00
2018-09-25T02:46:22.779Z,6.00
2018-09-25T02:48:56.245Z,6.00
2018-09-25T02:51:29.893Z,6.00
2018-09-25T02:54:03.443Z,5.90
2018-09-25T02:56:36.893Z,5.90
2018-09-25T02:59:10.549Z,5.90
2018-09-25T03:01:43.953Z,5.90
2018-09-25T03:04:17.561Z,5.90
2018-09-25T03:06:51.012Z,5.80
2018-09-25T03:09:24.616Z,5.80
2018-09-25T03:11:58.161Z,5.80
2018-09-25T03:14:31.603Z,5.80
2018-09-25T03:17:05.087Z,5.80
2018-09-25T03:19:38.781Z,5.80
2018-09-25T03:22:12.335Z,5.80
2018-09-25T03:24:45.932Z,5.80
2018-09-25T03:27:19.535Z,5.70
2018-09-25T03:29:53.226Z,5.70
2018-09-25T03:32:26.938Z,5.70
2018-09-25T03:35:00.416Z,5.70
2018-09-25T03:37:40.679Z,5.70
2018-09-25T03:40:14.351Z,5.60
2018-09-25T03:42:47.830Z,5.60
2018-09-25T03:45:21.441Z,5.60
2018-09-25T03:47:55.078Z,5.50
2018-09-25T03:50:28.616Z,5.50
2018-09-25T03:53:02.101Z,5.50
2018-09-25T03:55:35.705Z,5.50
2018-09-25T03:58:09.129Z,5.40
2018-09-25T04:00:42.605Z,5.40
2018-09-25T04:03:16.180Z,5.30
2018-09-25T04:05:49.682Z,5.30
2018-09-25T04:08:23.237Z,5.30
2018-09-25T04:10:56.861Z,5.20
2018-09-25T04:13:30.381Z,5.20
2018-09-25T04:16:04.057Z,5.20
2018-09-25T04:18:37.641Z,5.30
2018-09-25T04:21:11.242Z,5.20
2018-09-25T04:23:44.865Z,5.20
2018-09-25T04:26:18.386Z,5.20
2018-09-25T04:28:52.053Z,5.10
2018-09-25T04:31:25.741Z,5.10
2018-09-25T04:33:59.309Z,5.10
2018-09-25T04:36:32.877Z,5.10
2018-09-25T04:39:06.453Z,5.10
2018-09-25T04:41:39.859Z,5.10
2018-09-25T04:44:13.511Z,5.10
2018-09-25T04:46:47.089Z,5.10
2018-09-25T04:49:20.725Z,5.10
2018-09-25T04:51:54.279Z,5.10
2018-09-25T04:54:27.876Z,5.10
2018-09-25T04:57:01.391Z,5.10
2018-09-25T04:59:34.999Z,5.10
2018-09-25T05:02:08.468Z,5.10
2018-09-25T05:04:41.934Z,5.10
2018-09-25T05:07:15.565Z,5.10
2018-09-25T05:09:49.148Z,5.10
2018-09-25T05:12:22.677Z,5.10
2018-09-25T05:14:56.492Z,5.10
2018-09-25T05:17:29.948Z,5.10
2018-09-25T05:20:03.596Z,5.10
2018-09-25T05:22:37.106Z,5.00
2018-09-25T05:25:10.716Z,5.10
2018-09-25T05:27:44.269Z,5.10
2018-09-25T05:30:17.759Z,5.10
2018-09-25T05:32:51.270Z,5.10
2018-09-25T05:35:24.833Z,5.20
2018-09-25T05:37:58.349Z,5.20
2018-09-25T05:40:32.013Z,5.20
2018-09-25T05:43:05.586Z,5.30
2018-09-25T05:45:39.164Z,5.30
2018-09-25T05:48:12.752Z,5.30
2018-09-25T05:50:46.317Z,5.30
2018-09-25T05:53:19.936Z,5.30
2018-09-25T05:55:53.538Z,5.40
2018-09-25T05:58:26.965Z,5.60
2018-09-25T06:01:00.619Z,5.60
2018-09-25T06:03:34.148Z,5.70
2018-09-25T06:06:07.652Z,5.80
2018-09-25T06:08:41.303Z,5.80
2018-09-25T06:11:14.824Z,5.80
2018-09-25T06:13:48.308Z,5.80
2018-09-25T06:16:21.858Z,5.80
2018-09-25T06:18:55.353Z,5.90
2018-09-25T06:21:28.954Z,5.90
2018-09-25T06:24:02.637Z,6.00
2018-09-25T06:26:36.173Z,6.10
2018-09-25T06:29:09.905Z,6.20
2018-09-25T06:31:43.382Z,6.20
2018-09-25T06:34:16.972Z,6.30
2018-09-25T06:36:50.627Z,6.40
2018-09-25T06:39:24.240Z,6.60
2018-09-25T06:41:57.775Z,6.70
2018-09-25T06:44:31.429Z,6.80
2018-09-25T06:47:05.198Z,6.90
2018-09-25T06:49:38.627Z,7.10
2018-09-25T06:52:12.457Z,7.10
2018-09-25T06:54:46.358Z,7.30
2018-09-25T06:57:19.972Z,7.40
2018-09-25T06:59:53.644Z,7.60
2018-09-25T07:02:27.390Z,7.80
2018-09-25T07:05:01.141Z,7.80
2018-09-25T07:07:35.448Z,7.90
2018-09-25T07:10:09.153Z,8.00
2018-09-25T07:12:42.802Z,8.10
2018-09-25T07:15:16.429Z,8.20
2018-09-25T07:17:50.327Z,8.30
2018-09-25T07:20:23.831Z,8.40
2018-09-25T07:22:57.779Z,8.50
2018-09-25T07:25:31.380Z,8.70
2018-09-25T07:28:04.887Z,8.90
2018-09-25T07:30:38.596Z,9.00
2018-09-25T07:33:12.104Z,9.10
2018-09-25T07:35:45.757Z,9.10
2018-09-25T07:38:19.461Z,9.20
2018-09-25T07:40:53.104Z,9.30
2018-09-25T07:43:26.825Z,9.50
2018-09-25T07:46:00.431Z,9.80
2018-09-25T07:48:34.137Z,10.00
2018-09-25T07:51:07.592Z,10.20
2018-09-25T07:53:41.331Z,10.30
2018-09-25T07:56:14.842Z,10.50
2018-09-25T07:58:48.440Z,10.60
2018-09-25T08:01:22.067Z,10.70
2018-09-25T08:03:55.553Z,10.80
2018-09-25T08:06:29.444Z,11.00
2018-09-25T08:09:03.043Z,11.30
2018-09-25T08:11:37.037Z,11.50
2018-09-25T08:14:10.623Z,11.60
2018-09-25T08:16:44.480Z,11.80
2018-09-25T08:19:18.206Z,12.00
2018-09-25T08:21:51.691Z,12.10
2018-09-25T08:24:25.573Z,12.20
2018-09-25T08:26:59.344Z,12.50
2018-09-25T08:29:32.986Z,12.60
2018-09-25T08:32:06.828Z,12.60
2018-09-25T08:34:40.329Z,12.80
2018-09-25T08:37:13.957Z,13.10
2018-09-25T08:39:47.798Z,13.20
2018-09-25T08:42:21.359Z,13.40
2018-09-25T08:44:55.683Z,13.50
2018-09-25T08:47:29.371Z,13.60
2018-09-25T08:50:02.833Z,13.60
2018-09-25T08:52:36.680Z,13.80
2018-09-25T08:55:10.563Z,14.00
2018-09-25T08:57:44.316Z,14.10
2018-09-25T09:00:18.093Z,14.30
2018-09-25T09:02:51.894Z,14.20
2018-09-25T09:05:25.593Z,14.30
2018-09-25T09:07:59.265Z,14.50
2018-09-25T09:10:32.944Z,14.50
2018-09-25T09:13:06.430Z,14.70
2018-09-25T09:15:40.144Z,14.70
2018-09-25T09:18:14.105Z,15.00
2018-09-25T09:20:47.740Z,15.00
2018-09-25T09:23:21.317Z,15.20
2018-09-25T09:25:55.058Z,15.40
2018-09-25T09:28:28.525Z,15.30
2018-09-25T09:31:02.045Z,15.00
2018-09-25T09:33:35.787Z,15.10
2018-09-25T09:36:09.453Z,15.50
2018-09-25T09:38:42.979Z,15.60
2018-09-25T09:41:16.934Z,15.70
2018-09-25T09:43:50.850Z,16.10
2018-09-25T09:46:24.620Z,16.40
2018-09-25T09:48:58.580Z,16.20
2018-09-25T09:51:32.194Z,16.20
2018-09-25T09:54:05.645Z,16.60
2018-09-25T09:56:39.276Z,16.50
2018-09-25T09:59:12.962Z,17.10
2018-09-25T10:01:46.765Z,17.10
2018-09-25T10:04:20.360Z,17.20
2018-09-25T10:06:54.091Z,17.00
2018-09-25T10:09:27.723Z,17.00
2018-09-25T10:12:01.320Z,17.40
2018-09-25T10:14:35.028Z,17.50
2018-09-25T10:17:08.643Z,18.10
2018-09-25T10:19:42.705Z,18.20
2018-09-25T10:22:16.340Z,18.20
2018-09-25T10:24:49.970Z,18.10
2018-09-25T10:27:23.711Z,18.20
2018-09-25T10:29:57.173Z,18.50
2018-09-25T10:32:30.816Z,18.50
2018-09-25T10:35:04.494Z,18.60
2018-09-25T10:37:37.982Z,17.90
2018-09-25T10:40:11.477Z,18.00
2018-09-25T10:42:45.047Z,18.30
2018-09-25T10:45:18.493Z,18.60
2018-09-25T10:47:52.033Z,18.80
2018-09-25T10:50:25.514Z,19.20
2018-09-25T10:52:59.031Z,19.20
2018-09-25T10:55:33.209Z,19.70
2018-09-25T10:58:06.674Z,20.10
2018-09-25T11:00:40.176Z,19.80
2018-09-25T11:03:13.850Z,19.70
2018-09-25T11:05:47.349Z,19.50
2018-09-25T11:08:20.985Z,18.90
2018-09-25T11:10:54.463Z,18.50
2018-09-25T11:13:27.996Z,18.20
2018-09-25T11:16:01.618Z,17.80
2018-09-25T11:18:35.241Z,17.50
2018-09-25T11:21:08.753Z,17.80
2018-09-25T11:23:42.594Z,18.30
2018-09-25T11:26:16.000Z,18.70
2018-09-25T11:28:49.521Z,19.40
2018-09-25T11:31:23.015Z,19.60
2018-09-25T11:33:56.473Z,20.30
2018-09-25T11:36:29.809Z,20.20
2018-09-25T11:39:03.406Z,19.30
2018-09-25T11:41:36.906Z,18.40
2018-09-25T11:44:10.416Z,18.80
2018-09-25T11:46:43.895Z,19.30
2018-09-25T11:49:17.464Z,19.10
2018-09-25T11:51:50.940Z,18.00
2018-09-25T11:54:24.517Z,17.60
2018-09-25T11:56:57.934Z,18.30
2018-09-25T11:59:31.413Z,18.60
2018-09-25T12:02:05.099Z,18.00
2018-09-25T12:04:38.704Z,18.60
2018-09-25T12:07:12.270Z,19.80
2018-09-25T12:09:45.765Z,21.20
2018-09-25T12:12:19.329Z,21.00
2018-09-25T12:14:52.965Z,19.70
2018-09-25T12:17:26.442Z,19.30
2018-09-25T12:20:00.216Z,18.00
2018-09-25T12:22:33.732Z,17.70
2018-09-25T12:25:07.140Z,18.90
2018-09-25T12:27:40.772Z,20.30
2018-09-25T12:30:14.343Z,21.50
2018-09-25T12:32:47.927Z,21.80
2018-09-25T12:35:21.365Z,22.80
2018-09-25T12:38:01.870Z,23.80
2018-09-25T12:40:35.431Z,24.20
2018-09-25T12:43:08.904Z,23.90
2018-09-25T12:45:42.506Z,24.00
2018-09-25T12:48:16.261Z,23.90
2018-09-25T12:50:49.850Z,23.70
2018-09-25T12:53:23.337Z,23.90
2018-09-25T12:55:56.947Z,24.00
2018-09-25T12:58:30.451Z,24.00
2018-09-25T13:01:03.915Z,24.70
2018-09-25T13:03:37.300Z,24.00
2018-09-25T13:06:10.881Z,24.10
2018-09-25T13:08:44.285Z,24.50
2018-09-25T13:11:17.802Z,25.10
2018-09-25T13:13:51.789Z,25.40
2018-09-25T13:16:25.217Z,24.20
2018-09-25T13:18:58.741Z,24.40
2018-09-25T13:21:32.410Z,22.70
2018-09-25T13:24:05.914Z,20.50
2018-09-25T13:26:39.417Z,20.60
2018-09-25T13:29:12.721Z,21.60
2018-09-25T13:31:46.301Z,21.10
2018-09-25T13:34:19.933Z,21.40
2018-09-25T13:36:53.410Z,22.10
2018-09-25T13:39:27.049Z,22.80
2018-09-25T13:42:00.487Z,23.70
2018-09-25T13:44:33.943Z,22.40
2018-09-25T13:47:07.546Z,22.30
2018-09-25T13:49:41.098Z,22.60
2018-09-25T13:52:14.734Z,22.60
2018-09-25T13:54:48.267Z,22.60
2018-09-25T13:57:21.584Z,22.40
2018-09-25T13:59:55.185Z,21.80
2018-09-25T14:02:28.826Z,20.80
2018-09-25T14:05:02.185Z,18.80
2018-09-25T14:07:35.650Z,18.60
2018-09-25T14:10:09.323Z,20.20
2018-09-25T14:12:43.026Z,20.50
2018-09-25T14:15:16.649Z,21.30
2018-09-25T14:17:50.092Z,22.00
2018-09-25T14:20:23.818Z,22.60
2018-09-25T14:22:57.308Z,22.90
2018-09-25T14:25:30.786Z,21.50
2018-09-25T14:28:04.469Z,20.90
2018-09-25T14:30:37.994Z,20.50
2018-09-25T14:33:11.381Z,19.70
2018-09-25T14:35:44.992Z,18.90
2018-09-25T14:38:18.525Z,18.30
2018-09-25T14:40:52.096Z,18.20
2018-09-25T14:43:25.540Z,17.90
2018-09-25T14:45:58.947Z,17.20
2018-09-25T14:48:32.481Z,16.80
2018-09-25T14:51:06.120Z,16.90
2018-09-25T14:53:39.682Z,16.80
2018-09-25T14:56:13.001Z,16.40
2018-09-25T14:58:46.613Z,16.10
2018-09-25T15:01:20.121Z,15.80
2018-09-25T15:03:53.633Z,15.60
2018-09-25T15:06:27.213Z,15.50
2018-09-25T15:09:00.709Z,15.50
2018-09-25T15:11:34.101Z,15.40
2018-09-25T15:14:07.558Z,15.30
2018-09-25T15:16:41.070Z,15.20
2018-09-25T15:19:14.796Z,15.00
2018-09-25T15:21:48.652Z,15.10
2018-09-25T15:24:22.203Z,15.30
2018-09-25T15:26:55.520Z,15.20
2018-09-25T15:29:29.145Z,15.00
2018-09-25T15:32:02.621Z,14.90
2018-09-25T15:34:36.333Z,14.80
2018-09-25T15:37:09.719Z,14.70
2018-09-25T15:39:43.262Z,14.60
2018-09-25T15:42:16.874Z,14.50
2018-09-25T15:44:50.496Z,14.40
2018-09-25T15:47:24.056Z,14.30
2018-09-25T15:49:57.553Z,14.30
2018-09-25T15:52:31.152Z,14.20
2018-09-25T15:55:04.726Z,14.10
2018-09-25T15:57:38.705Z,14.10
2018-09-25T16:00:12.576Z,14.00
2018-09-25T16:02:45.902Z,14.00
2018-09-25T16:05:19.512Z,13.90
2018-09-25T16:07:52.973Z,13.80
2018-09-25T16:10:26.557Z,13.80
2018-09-25T16:13:00.029Z,13.70
2018-09-25T16:15:33.661Z,13.70
2018-09-25T16:18:07.453Z,13.60
2018-09-25T16:20:40.994Z,13.60
2018-09-25T16:23:14.432Z,13.50
2018-09-25T16:25:48.046Z,13.40
2018-09-25T16:28:21.803Z,13.30
2018-09-25T16:30:55.406Z,13.30
2018-09-25T16:33:29.004Z,13.30
2018-09-25T16:36:02.473Z,13.30
2018-09-25T16:38:36.091Z,13.20
2018-09-25T16:41:09.709Z,13.10
2018-09-25T16:43:43.433Z,13.00
2018-09-25T16:46:17.015Z,13.00
2018-09-25T16:48:50.433Z,12.90
2018-09-25T16:51:23.925Z,12.80
2018-09-25T16:53:57.476Z,12.70
2018-09-25T16:56:31.052Z,12.70
2018-09-25T16:59:04.665Z,12.50
2018-09-25T17:01:38.254Z,12.40
2018-09-25T17:04:11.948Z,12.10
2018-09-25T17:06:45.636Z,12.00
2018-09-25T17:09:19.219Z,12.00
2018-09-25T17:11:52.926Z,11.90
2018-09-25T17:14:26.416Z,11.80
2018-09-25T17:17:00.198Z,11.70
2018-09-25T17:19:33.704Z,11.70
2018-09-25T17:22:07.388Z,11.50
2018-09-25T17:24:41.207Z,11.50
2018-09-25T17:27:14.853Z,11.40
2018-09-25T17:29:48.386Z,11.30
2018-09-25T17:32:22.035Z,11.20
2018-09-25T17:34:55.768Z,11.10
2018-09-25T17:37:29.378Z,11.00
2018-09-25T17:40:02.931Z,10.90
2018-09-25T17:42:36.558Z,10.90
2018-09-25T17:45:10.222Z,10.80
2018-09-25T17:47:44.655Z,10.70
2018-09-25T17:50:18.192Z,10.70
2018-09-25T17:52:51.954Z,10.60
2018-09-25T17:55:25.732Z,10.50
2018-09-25T17:57:59.410Z,10.50
2018-09-25T18:00:33.134Z,10.40
2018-09-25T18:03:06.917Z,10.30
2018-09-25T18:05:40.476Z,10.30
2018-09-25T18:08:14.102Z,10.20
2018-09-25T18:10:47.801Z,10.10
2018-09-25T18:13:22.592Z,10.00
2018-09-25T18:15:56.186Z,10.00
2018-09-25T18:18:29.940Z,10.00
2018-09-25T18:21:04.146Z,10.00
2018-09-25T18:23:38.404Z,10.00
2018-09-25T18:26:12.069Z,9.90
2018-09-25T18:28:46.109Z,9.80
2018-09-25T18:31:20.198Z,9.70
2018-09-25T18:33:53.612Z,9.80
2018-09-25T18:36:27.160Z,9.70
2018-09-25T18:39:00.788Z,9.70
2018-09-25T18:41:34.503Z,9.70
2018-09-25T18:44:08.548Z,9.60
2018-09-25T18:46:42.114Z,9.50
2018-09-25T18:49:15.708Z,9.50
2018-09-25T18:51:50.063Z,9.30
2018-09-25T18:54:23.873Z,9.30
2018-09-25T18:56:57.520Z,9.30
2018-09-25T18:59:31.135Z,9.20
2018-09-25T19:02:04.741Z,9.20
2018-09-25T19:04:39.156Z,9.20
2018-09-25T19:07:12.779Z,9.20
2018-09-25T19:09:46.537Z,9.20
2018-09-25T19:12:20.435Z,9.20
2018-09-25T19:14:54.053Z,9.30
2018-09-25T19:17:27.754Z,9.30
2018-09-25T19:20:01.441Z,9.30
2018-09-25T19:22:34.997Z,9.30
2018-09-25T19:25:08.831Z,9.20
2018-09-25T19:27:42.516Z,9.30
2018-09-25T19:30:16.215Z,9.20
2018-09-25T19:32:49.820Z,9.20
2018-09-25T19:35:23.750Z,9.20
2018-09-25T19:37:57.550Z,9.10
2018-09-25T19:40:31.150Z,9.10
2018-09-25T19:43:04.611Z,9.10
2018-09-25T19:45:38.080Z,9.00
2018-09-25T19:48:11.624Z,9.00
2018-09-25T19:50:45.209Z,9.00
2018-09-25T19:53:18.785Z,8.90
2018-09-25T19:55:52.543Z,8.80
2018-09-25T19:58:26.040Z,8.80
2018-09-25T20:00:59.656Z,8.70
2018-09-25T20:03:33.204Z,8.70
2018-09-25T20:06:06.702Z,8.70
2018-09-25T20:08:40.355Z,8.70
2018-09-25T20:11:13.866Z,8.60
2018-09-25T20:13:47.469Z,8.60
2018-09-25T20:16:21.030Z,8.60
2018-09-25T20:18:54.669Z,8.50
2018-09-25T20:21:28.354Z,8.50
2018-09-25T20:24:01.948Z,8.50
2018-09-25T20:26:35.648Z,8.50
2018-09-25T20:29:09.157Z,8.50
2018-09-25T20:31:42.868Z,8.50
2018-09-25T20:34:16.317Z,8.50
2018-09-25T20:36:49.895Z,8.40
2018-09-25T20:39:23.428Z,8.40
2018-09-25T20:41:57.057Z,8.40
2018-09-25T20:44:30.770Z,8.40
2018-09-25T20:47:04.476Z,8.30
2018-09-25T20:49:38.190Z,8.30
2018-09-25T20:52:12.148Z,8.20
2018-09-25T20:54:45.629Z,8.20
2018-09-25T20:57:19.177Z,8.10
2018-09-25T20:59:52.827Z,8.10
2018-09-25T21:02:26.408Z,8.10
2018-09-25T21:04:59.771Z,8.00
2018-09-25T21:07:33.416Z,8.00
2018-09-25T21:10:07.096Z,8.10
2018-09-25T21:12:40.747Z,8.10
2018-09-25T21:15:14.449Z,8.10
2018-09-25T21:17:47.957Z,8.00
2018-09-25T21:20:21.436Z,8.10
2018-09-25T21:22:55.079Z,8.00
2018-09-25T21:25:28.777Z,8.00
2018-09-25T21:28:02.377Z,8.00
2018-09-25T21:30:36.080Z,7.90
2018-09-25T21:33:09.675Z,8.00
2018-09-25T21:35:43.111Z,7.90
2018-09-25T21:38:16.785Z,7.90
2018-09-25T21:40:50.285Z,7.90
2018-09-25T21:43:23.852Z,7.80
2018-09-25T21:45:57.500Z,7.90
2018-09-25T21:48:31.101Z,7.80
2018-09-25T21:51:04.765Z,7.80
2018-09-25T21:53:38.275Z,7.70
2018-09-25T21:56:11.877Z,7.70
2018-09-25T21:58:45.305Z,7.60
2018-09-25T22:01:18.853Z,7.70
2018-09-25T22:03:52.485Z,7.60
2018-09-25T22:06:26.261Z,7.60
2018-09-25T22:08:59.749Z,7.50
2018-09-25T22:11:33.498Z,7.60
2018-09-25T22:14:07.084Z,7.60
2018-09-25T22:16:40.768Z,7.60
2018-09-25T22:19:14.431Z,7.60
2018-09-25T22:21:48.041Z,7.50
2018-09-25T22:24:21.700Z,7.50
2018-09-25T22:26:55.211Z,7.40
2018-09-25T22:29:28.772Z,7.50
2018-09-25T22:32:02.420Z,7.40
2018-09-25T22:34:35.931Z,7.40
2018-09-25T22:37:09.632Z,7.40
2018-09-25T22:39:43.217Z,7.30
2018-09-25T22:42:16.575Z,7.30
2018-09-25T22:44:50.128Z,7.30
2018-09-25T22:47:23.597Z,7.30
2018-09-25T22:49:57.114Z,7.30
2018-09-25T22:52:30.653Z,7.30
2018-09-25T22:55:04.342Z,7.30
2018-09-25T22:57:38.066Z,7.20
2018-09-25T23:00:11.596Z,7.20
2018-09-25T23:02:45.069Z,7.20
2018-09-25T23:05:18.505Z,7.20
2018-09-25T23:07:52.140Z,7.20
2018-09-25T23:10:25.717Z,7.10
2018-09-25T23:12:59.302Z,7.10
2018-09-25T23:15:32.834Z,7.10
2018-09-25T23:18:06.527Z,7.10
2018-09-25T23:20:40.180Z,7.10
2018-09-25T23:23:13.717Z,7.10
2018-09-25T23:25:47.372Z,7.00
2018-09-25T23:28:20.689Z,7.00
2018-09-25T23:30:54.235Z,7.00
2018-09-25T23:33:27.851Z,7.00
2018-09-25T23:36:01.513Z,6.90
2018-09-25T23:38:35.036Z,6.90
2018-09-25T23:41:11.413Z,6.90
2018-09-25T23:44:44.752Z,6.90
2018-09-25T23:47:18.293Z,6.90
2018-09-25T23:51:56.761Z,6.90
2018-09-25T23:54:29.656Z,6.90
2018-09-25T23:57:02.789Z,6.80
2018-09-25T23:59:35.032Z,6.80
